KPDT/PDT METAR and TAF weather

Enter ICAO airport designator
Station Type Date Time Source
KPDT METAR 2019/02/21 11:31 UTC NOAA

KPDT 211131Z AUTO 29007KT 3SM -SN BR BKN006 BKN020 OVC025 M03/M04 A2996 RMK AO2 P0000 T10281044


Station Type Date Time Source
KPDT Decoded METAR 2019/02/21 11:31 UTC NOAA

PENDLETON MUNICIPAL AIRPORT, OR, United States (KPDT) 45-70N 118-83W 458M
Feb 21, 2019 - 06:31 AM EST / 2019.02.21 1131 UTC
Wind: from the WNW (290 degrees) at 8 MPH (7 KT):0
Visibility: 3 mile(s):0
Sky conditions: overcast
Weather: light snow; mist
Precipitation last hour: A trace
Temperature: 27.0 F (-2.8 C)
Windchill: 19 F (-7 C):1
Dew Point: 24.1 F (-4.4 C)
Relative Humidity: 88%
Pressure (altimeter): 29.96 in. Hg (1014 hPa)
ob: KPDT 211131Z AUTO 29007KT 3SM -SN BR BKN006 BKN020 OVC025 M03/M04 A2996 RMK AO2 P0000 T10281044
cycle: 11

Station Type Date Time Source
KPDT TAF 2019/02/21 12:22 UTC NOAA

TAF KPDT 211120Z 2112/2212 32006KT 2SM -SHSN BR BKN008 OVC015
TEMPO 2112/2116 3SM -SHSN BR SCT008 OVC015
FM211600 30006KT 5SM -SHSN SCT008 BKN015 OVC025
FM211900 31007KT 6SM BR BKN030
FM220300 VRB05KT P6SM SCT025
FM220600 15004KT P6SM SCT006


Example: see airport list